KMLJ

Details ICAO KMLJ (MLJ)
Name BALDWIN CO
Region United States
Timezone America/New_York (UTC-5.0)
Plans Departing 0
Arriving 1
Stats Elevation 384 ft / 117 m (AMSL)
Location 33.154170° -83.241361°
Runways 1
Magnetic Variation 5.833° W
Sunrise 2017-12-12 12:28:28 UTC / 2017-12-12 07:28:28 Local
Sunset 2017-12-12 22:28:00 UTC / 2017-12-12 17:28:00 Local
Advertisement - Login to hide

Runways

ID Width Length Bearing (true) Bearing (mag) Surface Threshold Offset Overrun Length
10 100 ft / 30 m 5,490 ft / 1,673 m 91.05° 96.88° Asphalt 0 ft / 0 m 0 ft / 0 m
28 100 ft / 30 m 5,490 ft / 1,673 m 271.06° 276.89° Asphalt 0 ft / 0 m 0 ft / 0 m

Map

Weather


0- 5 10 15 20 25 30 35+ Temperature / ° C

Clouds and Precipitation
Forecast for 2017-12-12 12:00 UTC. Updated an hour ago

Ground ~20,000 ft ~40,000 ft Winds

METAR

KMLJ 121215Z AUTO 00000KT 10SM CLR 04/04 A2986 RMK AO2

TAF

Not found

Frequencies

Recorded 120.92 MHz AWOS 3
Approach 119.60 MHz ATLANTA APP/DEP
Unicom 122.80 MHz CTAF/UNICOM
Approach 124.20 MHz ATLANTA APP/DEP
Warning: Do not use this data for real-world aviation or navigation. No guarantee of current accuracy is given.